Time;durP1;ratioP1;P1;durP2;ratioP2;P2;SDS_P1;SDS_P2;PMS_P1;PMS_P2;Temp;Humidity;BMP_temperature;BMP_pressure;BME280_temperature;BME280_humidity;BME280_pressure;Samples;Min_cycle;Max_cycle;Signal;HPM_P1;HPM_P2
2021/07/13 00:03:05;;;;;;;61.75;33.95;;;;;;;16.66;91.44;101131.44;6117253;23;20309;-83
2021/07/13 00:05:58;;;;;;;63.28;36.78;;;;;;;16.64;91.42;101125.25;6116372;23;20006;-84
2021/07/13 00:08:24;;;;;;;66.43;37.13;;;;;;;16.61;91.89;101127.91;6123235;23;20319;-84
2021/07/13 00:10:58;;;;;;;65.28;36.88;;;;;;;16.60;91.83;101126.13;6120827;23;20097;-82
2021/07/13 00:13:23;;;;;;;72.63;36.92;;;;;;;16.59;91.97;101129.69;6120187;23;20108;-82
2021/07/13 00:15:57;;;;;;;63.92;36.70;;;;;;;16.55;91.67;101130.59;6121293;23;20010;-81
2021/07/13 00:18:57;;;;;;;68.57;38.40;;;;;;;16.52;91.91;101137.69;6121432;23;20013;-83
2021/07/13 00:21:43;;;;;;;68.32;36.42;;;;;;;16.48;91.94;101143.00;6114092;23;20405;-81
2021/07/13 00:24:30;;;;;;;63.20;36.90;;;;;;;16.44;91.84;101151.88;6118718;23;20009;-81
2021/07/13 00:27:01;;;;;;;69.15;38.03;;;;;;;16.38;91.72;101152.78;6121608;23;20073;-82
2021/07/13 00:29:27;;;;;;;66.72;36.63;;;;;;;16.35;91.98;101147.47;6119617;23;20622;-85
2021/07/13 00:31:55;;;;;;;67.47;37.85;;;;;;;16.31;92.04;101143.06;6120918;23;20006;-81
2021/07/13 00:34:25;;;;;;;65.97;38.53;;;;;;;16.28;92.00;101145.72;6120682;23;20014;-82
2021/07/13 00:36:53;;;;;;;69.82;37.10;;;;;;;16.24;91.81;101139.53;6123623;23;20006;-82
2021/07/13 00:39:23;;;;;;;65.93;35.50;;;;;;;16.19;91.92;101146.63;6122110;23;20022;-83
2021/07/13 00:41:49;;;;;;;68.90;37.78;;;;;;;16.15;92.07;101147.50;6120873;23;20447;-82
2021/07/13 00:44:20;;;;;;;62.55;36.35;;;;;;;16.11;92.20;101143.09;6116832;23;20092;-84
2021/07/13 00:47:09;;;;;;;71.53;37.97;;;;;;;16.05;91.77;101137.78;6122093;23;20009;-84
2021/07/13 00:49:35;;;;;;;62.95;36.67;;;;;;;15.98;91.92;101136.94;6120789;23;20010;-82
2021/07/13 00:52:01;;;;;;;63.22;35.15;;;;;;;15.94;91.80;101140.44;6120875;23;20020;-84
2021/07/13 00:54:47;;;;;;;67.72;36.20;;;;;;;15.91;91.97;101141.38;6118288;23;20002;-82
2021/07/13 00:57:40;;;;;;;65.32;35.40;;;;;;;15.90;92.12;101149.28;6120930;23;20059;-81
2021/07/13 01:00:47;;;;;;;76.95;39.25;;;;;;;15.87;92.14;101155.53;6119095;23;20017;-82
2021/07/13 01:03:13;;;;;;;76.97;39.97;;;;;;;15.83;92.37;101145.78;6119574;23;20018;-80
2021/07/13 01:05:52;;;;;;;74.50;39.22;;;;;;;15.80;92.33;101144.03;6120484;23;20150;-83
2021/07/13 01:08:51;;;;;;;80.75;40.63;;;;;;;15.78;92.58;101152.81;6120786;23;20010;-84
2021/07/13 01:12:06;;;;;;;79.63;40.15;;;;;;;15.76;92.43;101162.53;6117570;23;20014;-78
2021/07/13 01:14:39;;;;;;;;;;;;;;;15.74;92.49;101169.63;6122012;23;20025;-82
2021/07/13 01:17:13;;;;;;;73.32;37.72;;;;;;;15.71;92.51;101164.31;6120614;23;20316;-81
2021/07/13 01:19:56;;;;;;;80.90;40.28;;;;;;;15.67;92.49;101158.13;6120114;23;20484;-83
2021/07/13 01:22:50;;;;;;;70.80;37.90;;;;;;;15.63;92.56;101156.34;6119323;23;20014;-79
2021/07/13 01:25:39;;;;;;;80.30;39.85;;;;;;;15.62;92.39;101154.59;6118830;23;20016;-80
2021/07/13 01:28:14;;;;;;;68.72;35.42;;;;;;;15.59;92.58;101158.13;6120833;23;20009;-82
2021/07/13 01:30:48;;;;;;;71.15;37.22;;;;;;;15.57;92.45;101156.34;6120595;23;20021;-80
2021/07/13 01:33:16;;;;;;;;;;;;;;;15.54;92.51;101151.91;6093015;23;20530;-83
2021/07/13 01:35:56;;;;;;;72.00;35.17;;;;;;;15.52;92.63;101143.97;6118869;23;19909;-81
2021/07/13 01:38:44;;;;;;;77.72;37.72;;;;;;;15.53;92.57;101144.84;6118285;23;20036;-79
2021/07/13 01:41:36;;;;;;;84.03;39.15;;;;;;;15.55;92.71;101158.13;6116680;23;20010;-83
2021/07/13 01:44:28;;;;;;;99.80;42.50;;;;;;;15.57;92.81;101146.63;6117773;23;20057;-82
2021/07/13 01:46:53;;;;;;;102.50;46.17;;;;;;;15.60;92.94;101141.31;6121166;23;20010;-82
2021/07/13 01:49:37;;;;;;;109.68;46.17;;;;;;;15.64;92.87;101150.16;6118575;23;20016;-81
2021/07/13 01:52:03;;;;;;;;;;;;;;;15.70;93.33;101139.56;6117449;23;20025;-79
2021/07/13 01:54:32;;;;;;;151.15;56.35;;;;;;;15.79;93.11;101144.88;6120108;23;19905;-81
2021/07/13 01:57:07;;;;;;;141.88;54.60;;;;;;;15.91;93.44;101140.47;6120248;23;20036;-79
2021/07/13 01:59:34;;;;;;;186.55;67.28;;;;;;;16.02;93.56;101141.34;6119712;23;20014;-84
2021/07/13 02:02:03;;;;;;;186.73;69.38;;;;;;;16.14;93.72;101146.63;6119370;23;20014;-82
2021/07/13 02:04:30;;;;;;;207.88;70.13;;;;;;;16.30;94.16;101151.91;6119291;23;20005;-80
2021/07/13 02:07:23;;;;;;;250.52;85.30;;;;;;;16.45;94.03;101157.16;6116202;23;20002;-83
2021/07/13 02:09:58;;;;;;;242.30;79.70;;;;;;;16.57;94.12;101148.28;6119210;23;20045;-79
2021/07/13 02:12:23;;;;;;;248.50;82.20;;;;;;;16.67;94.23;101151.78;6119062;23;20032;-84
2021/07/13 02:15:06;;;;;;;258.00;86.05;;;;;;;16.77;94.46;101145.56;6122201;23;20422;-83
2021/07/13 02:17:32;;;;;;;265.70;87.72;;;;;;;16.85;94.47;101154.38;6121272;23;20029;-83
2021/07/13 02:20:12;;;;;;;245.07;81.95;;;;;;;16.93;94.56;101151.72;6119611;23;20306;-82
2021/07/13 02:22:39;;;;;;;241.68;79.72;;;;;;;17.02;94.58;101140.16;6119875;23;20017;-81
2021/07/13 02:25:27;;;;;;;251.82;85.07;;;;;;;17.08;94.78;101136.56;6121608;23;20038;-80
2021/07/13 02:28:19;;;;;;;253.80;84.85;;;;;;;17.17;94.63;101140.09;6119709;23;20084;-84
2021/07/13 02:30:49;;;;;;;272.33;87.53;;;;;;;17.23;94.87;101138.25;6120177;23;20045;-82
2021/07/13 02:34:00;;;;;;;;;;;;;;;;;;;;;
2021/07/13 02:36:41;;;;;;;274.02;87.78;;;;;;;17.37;95.06;101131.06;6118690;23;20025;-82
2021/07/13 02:39:47;;;;;;;287.48;92.97;;;;;;;17.43;94.93;101133.72;6119428;23;20006;-79
2021/07/13 02:42:32;;;;;;;252.43;84.35;;;;;;;17.49;94.65;101130.13;6115304;23;20018;-82
2021/07/13 02:45:07;;;;;;;270.88;86.75;;;;;;;17.51;94.80;101128.31;6119242;23;20417;-81
2021/07/13 02:47:55;;;;;;;291.17;90.00;;;;;;;17.53;94.94;101124.75;6118878;23;20038;-80
2021/07/13 02:50:22;;;;;;;327.83;93.65;;;;;;;17.59;94.78;101125.59;6118036;23;20093;-80
2021/07/13 02:52:48;;;;;;;361.42;100.30;;;;;;;17.63;94.83;101124.69;6119525;23;20002;-80
2021/07/13 02:55:35;;;;;;;437.85;109.85;;;;;;;17.68;94.91;101120.22;6094189;23;20346;-83
2021/07/13 02:58:22;;;;;;;402.33;107.85;;;;;;;17.72;94.90;101118.41;6118357;23;20049;-84
2021/07/13 03:01:02;;;;;;;464.23;115.93;;;;;;;17.79;94.86;101122.78;6119192;23;20021;-85
2021/07/13 03:03:50;;;;;;;503.27;117.30;;;;;;;17.81;95.10;101121.88;6117187;23;20010;-83
2021/07/13 03:06:36;;;;;;;453.58;114.45;;;;;;;17.84;95.13;101121.84;6119013;23;20022;-80
2021/07/13 03:09:04;;;;;;;463.17;116.55;;;;;;;17.90;95.05;101128.00;6119162;23;20421;-81
2021/07/13 03:11:36;;;;;;;459.10;117.55;;;;;;;17.92;95.26;101120.91;6118802;23;20022;-82
2021/07/13 03:14:06;;;;;;;429.85;112.03;;;;;;;17.94;95.06;101119.13;6094570;23;20014;-80
2021/07/13 03:16:32;;;;;;;420.25;111.55;;;;;;;17.96;94.85;101114.66;6097265;23;20017;-82
2021/07/13 03:19:20;;;;;;;429.27;114.00;;;;;;;17.96;94.71;101118.22;6121930;23;20069;-81
2021/07/13 03:22:06;;;;;;;386.90;108.72;;;;;;;17.97;94.81;101122.66;6118447;23;20009;-82
2021/07/13 03:24:51;;;;;;;373.33;100.90;;;;;;;17.96;94.70;101120.88;6093820;23;20014;-83
2021/07/13 03:27:22;;;;;;;396.75;108.78;;;;;;;17.96;94.75;101122.63;6095723;23;20014;-85
2021/07/13 03:29:50;;;;;;;364.50;104.55;;;;;;;17.95;94.73;101119.09;6093989;23;20014;-82
2021/07/13 03:32:37;;;;;;;336.55;102.07;;;;;;;17.97;94.53;101111.09;6119036;23;20061;-80
2021/07/13 03:35:09;;;;;;;351.38;102.60;;;;;;;17.94;94.64;101113.78;6116385;23;20109;-83
2021/07/13 03:37:55;;;;;;;348.05;103.40;;;;;;;17.95;94.22;101123.56;6117641;23;20033;-81
2021/07/13 03:40:28;;;;;;;355.98;103.05;;;;;;;17.94;94.36;101127.09;6118225;23;20021;-80
2021/07/13 03:42:56;;;;;;;363.02;107.20;;;;;;;17.94;94.64;101127.09;6118901;23;20179;-83
2021/07/13 03:46:12;;;;;;;357.90;106.68;;;;;;;17.95;94.36;101126.22;6114520;23;20037;-82
2021/07/13 03:49:22;;;;;;;354.00;104.18;;;;;;;17.96;94.39;101130.63;6120213;23;20014;-80
2021/07/13 03:51:53;;;;;;;328.73;97.88;;;;;;;17.96;94.11;101126.19;6114977;23;20017;-86
2021/07/13 03:54:39;;;;;;;333.70;104.53;;;;;;;17.98;94.32;101123.53;6115949;23;20010;-83
2021/07/13 03:57:34;;;;;;;350.30;104.70;;;;;;;18.00;94.14;101133.25;6119348;23;20425;-82
2021/07/13 04:00:27;;;;;;;315.67;102.15;;;;;;;18.00;94.41;101127.03;6118603;23;20082;-82
2021/07/13 04:03:08;;;;;;;;;;;;;;;;;;;;;
2021/07/13 04:05:35;;;;;;;286.77;96.70;;;;;;;18.03;94.20;101127.03;6114528;23;20080;-81
2021/07/13 04:08:01;;;;;;;298.48;97.50;;;;;;;18.06;94.02;101120.78;6117195;23;20010;-80
2021/07/13 04:10:31;;;;;;;278.40;96.25;;;;;;;18.07;93.85;101127.84;6119279;23;20061;-82
2021/07/13 04:13:15;;;;;;;280.63;92.68;;;;;;;18.08;93.84;101126.97;6119064;23;20042;-80
2021/07/13 04:15:42;;;;;;;264.13;90.05;;;;;;;18.09;93.84;101126.06;6119197;23;20449;-80
2021/07/13 04:18:10;;;;;;;254.90;91.28;;;;;;;18.12;93.99;101131.34;6120469;23;20050;-78
2021/07/13 04:20:36;;;;;;;252.40;91.32;;;;;;;18.12;94.14;101142.00;6119592;23;20010;-80
2021/07/13 04:23:06;;;;;;;242.40;88.60;;;;;;;18.13;93.62;101143.78;6117278;23;20016;-83
2021/07/13 04:25:34;;;;;;;224.55;85.05;;;;;;;18.15;93.57;101142.88;6120282;23;20012;-80
2021/07/13 04:28:00;;;;;;;225.20;83.97;;;;;;;18.17;93.75;101142.84;6120801;23;20098;-83
2021/07/13 04:30:28;;;;;;;211.45;81.43;;;;;;;18.15;93.81;101142.88;6118311;23;20010;-80
2021/07/13 04:32:53;;;;;;;214.23;82.05;;;;;;;18.17;93.34;101150.84;6120350;23;20017;-83
2021/07/13 04:35:39;;;;;;;197.73;80.25;;;;;;;18.18;93.41;101153.50;6118155;23;20010;-80
2021/07/13 04:38:08;;;;;;;195.20;76.30;;;;;;;18.18;93.60;101164.16;6119248;23;20010;-82
2021/07/13 04:40:36;;;;;;;191.38;76.78;;;;;;;18.20;93.48;101164.13;6121295;23;20038;-79
2021/07/13 04:43:02;;;;;;;191.07;76.65;;;;;;;18.21;93.78;101165.91;6118940;23;20297;-82
2021/07/13 04:45:28;;;;;;;177.52;73.53;;;;;;;18.22;93.45;101164.09;6118602;23;20357;-83
2021/07/13 04:47:53;;;;;;;170.73;73.68;;;;;;;18.23;93.47;101161.47;6120389;23;20009;-83
2021/07/13 04:51:01;;;;;;;154.60;66.63;;;;;;;18.28;93.24;101156.06;6117941;23;20006;-83
2021/07/13 04:54:06;;;;;;;129.52;64.00;;;;;;;18.29;92.92;101166.69;6119635;23;20010;-81
2021/07/13 04:56:33;;;;;;;111.30;58.63;;;;;;;18.31;92.42;101169.34;6120927;23;20017;-83
2021/07/13 04:59:01;;;;;;;113.97;59.25;;;;;;;18.29;92.12;101169.38;6121524;23;20425;-85
2021/07/13 05:01:56;;;;;;;112.10;57.00;;;;;;;18.31;91.74;101174.69;6119605;23;20010;-81
2021/07/13 05:04:22;;;;;;;115.25;59.03;;;;;;;18.30;91.84;101170.25;6122892;23;20014;-82
2021/07/13 05:06:50;;;;;;;113.03;58.65;;;;;;;18.33;91.60;101167.56;6121192;23;20461;-84
2021/07/13 05:09:15;;;;;;;123.93;63.88;;;;;;;18.33;92.04;101172.91;6121115;23;20010;-81
2021/07/13 05:12:12;;;;;;;123.53;63.05;;;;;;;18.35;91.98;101171.06;6119721;23;20033;-84
2021/07/13 05:14:57;;;;;;;124.32;61.15;;;;;;;18.38;91.83;101181.72;6122290;23;20017;-80
2021/07/13 05:17:48;;;;;;;118.95;61.65;;;;;;;18.40;91.60;101182.56;6118626;23;20021;-84
2021/07/13 05:21:09;;;;;;;106.93;56.50;;;;;;;18.40;91.49;101185.25;6120322;23;20010;-83
2021/07/13 05:23:51;;;;;;;111.43;57.50;;;;;;;18.44;91.31;101186.09;6118627;23;20437;-84
2021/07/13 05:26:36;;;;;;;103.60;55.78;;;;;;;18.48;91.11;101185.16;6120674;23;20014;-83
2021/07/13 05:29:22;;;;;;;102.82;53.42;;;;;;;18.44;90.79;101181.66;6118459;23;20009;-83
2021/07/13 05:31:48;;;;;;;106.40;53.00;;;;;;;18.42;90.49;101188.78;6126126;23;20385;-85
2021/07/13 05:34:56;;;;;;;101.43;54.08;;;;;;;18.47;90.34;101189.59;6120306;23;20029;-80
2021/07/13 05:37:21;;;;;;;95.70;52.70;;;;;;;18.41;90.29;101195.00;6118958;23;20010;-84
2021/07/13 05:40:42;;;;;;;91.75;51.67;;;;;;;18.36;89.76;101192.38;6099563;23;20009;-86
2021/07/13 05:43:57;;;;;;;;;;;;;;;;;;;;;
2021/07/13 05:46:26;;;;;;;102.05;54.95;;;;;;;18.43;90.67;101187.88;6089066;23;20532;-80
2021/07/13 05:49:45;;;;;;;;;;;;;;;;;;;;;
2021/07/13 05:53:00;;;;;;;97.85;52.10;;;;;;;18.57;90.22;101189.50;6116065;23;20077;-84
2021/07/13 05:56:22;;;;;;;85.90;50.13;;;;;;;18.63;88.98;101192.13;6109717;23;20097;-83
2021/07/13 05:59:40;;;;;;;;;;;;;;;;;;;;;
2021/07/13 06:02:46;;;;;;;;;;;;;;;;;;;;;
2021/07/13 06:05:25;;;;;;;;;;;;;;;18.68;89.19;101188.50;6117414;23;20078;-79
2021/07/13 06:08:13;;;;;;;85.53;47.13;;;;;;;18.74;89.28;101184.00;6117765;23;19905;-81
2021/07/13 06:10:46;;;;;;;88.22;48.40;;;;;;;18.67;88.50;101184.06;6119028;23;20053;-89
2021/07/13 06:13:12;;;;;;;89.32;50.70;;;;;;;18.71;88.39;101184.91;6115784;23;20038;-86
2021/07/13 06:15:38;;;;;;;93.65;51.58;;;;;;;18.74;88.70;101184.88;6090853;23;20318;-86
2021/07/13 06:18:04;;;;;;;76.22;46.17;;;;;;;18.74;88.21;101194.66;6117150;23;20025;-81
2021/07/13 06:20:33;;;;;;;83.85;49.15;;;;;;;18.74;88.12;101195.53;6120087;23;20017;-85
2021/07/13 06:23:18;;;;;;;77.60;46.17;;;;;;;18.75;88.46;101193.75;6117475;23;20092;-85
2021/07/13 06:25:51;;;;;;;73.05;43.83;;;;;;;18.82;87.81;101204.31;6117115;23;20089;-85
2021/07/13 06:28:29;;;;;;;74.65;45.50;;;;;;;18.86;88.08;101198.03;6123063;23;20017;-84
2021/07/13 06:31:48;;;;;;;74.82;44.90;;;;;;;18.95;87.74;101198.84;6123099;23;20005;-85
2021/07/13 06:34:16;;;;;;;68.18;43.42;;;;;;;19.01;87.38;101198.78;6121982;23;20012;-80
2021/07/13 06:37:02;;;;;;;69.38;44.03;;;;;;;19.02;86.97;101198.78;6096428;23;20038;-87
2021/07/13 06:39:48;;;;;;;65.68;41.75;;;;;;;19.04;86.71;101199.66;6092908;23;20009;-82
2021/07/13 06:42:27;;;;;;;70.90;42.47;;;;;;;18.98;86.83;101205.06;6121123;23;20093;-87
2021/07/13 06:45:05;;;;;;;70.72;43.08;;;;;;;19.02;86.71;101205.91;6122760;23;20077;-81
2021/07/13 06:47:53;;;;;;;69.53;41.00;;;;;;;18.99;86.52;101208.59;6121043;23;20022;-83
2021/07/13 06:50:19;;;;;;;66.68;40.00;;;;;;;18.99;86.51;101205.91;6120425;23;20007;-88
2021/07/13 06:52:49;;;;;;;60.00;39.85;;;;;;;19.03;86.40;101212.97;6124409;23;20344;-87
2021/07/13 06:55:14;;;;;;;68.65;41.85;;;;;;;19.07;86.69;101209.38;6123194;23;20002;-80
2021/07/13 06:57:40;;;;;;;62.28;40.92;;;;;;;19.01;86.23;101217.47;6111193;23;20069;-79
2021/07/13 07:00:09;;;;;;;64.68;41.78;;;;;;;19.05;86.30;101221.84;6092424;23;20341;-88
2021/07/13 07:02:38;;;;;;;61.67;39.53;;;;;;;19.01;85.56;101217.47;6117319;23;20416;-83
2021/07/13 07:05:10;;;;;;;61.60;41.38;;;;;;;19.12;86.17;101223.53;6117435;23;20083;-83
2021/07/13 07:07:53;;;;;;;60.00;40.25;;;;;;;19.14;85.81;101223.50;6090746;23;20037;-82
2021/07/13 07:10:20;;;;;;;62.35;40.08;;;;;;;19.13;86.01;101219.09;6115186;23;20430;-83
2021/07/13 07:12:52;;;;;;;56.58;39.78;;;;;;;19.15;85.49;101223.53;6114553;23;20787;-82
2021/07/13 07:15:21;;;;;;;58.35;38.92;;;;;;;19.15;85.62;101220.84;6095418;23;20016;-81
2021/07/13 07:17:53;;;;;;;61.05;40.75;;;;;;;19.06;85.73;101218.28;6119657;23;20006;-81
2021/07/13 07:20:34;;;;;;;58.90;39.63;;;;;;;19.02;85.75;101224.56;6114349;23;20088;-81
2021/07/13 07:23:17;;;;;;;69.50;43.92;;;;;;;19.06;86.88;101217.41;6115624;23;20045;-81
2021/07/13 07:25:43;;;;;;;72.70;44.40;;;;;;;19.07;86.16;101220.03;6121817;23;20013;-86
2021/07/13 07:28:17;;;;;;;70.93;43.60;;;;;;;19.15;86.35;101220.84;6113065;23;20025;-83
2021/07/13 07:30:49;;;;;;;71.05;42.47;;;;;;;19.20;86.30;101220.78;6114311;23;20074;-83
2021/07/13 07:33:38;;;;;;;67.72;40.38;;;;;;;19.29;85.68;101220.66;6084955;23;20341;-84
2021/07/13 07:36:09;;;;;;;61.17;40.25;;;;;;;19.42;84.58;101221.34;6092115;23;20014;-86
2021/07/13 07:42:15;;;;;;;56.70;38.05;;;;;;;19.60;84.20;101224.66;6089042;23;20022;-84
2021/07/13 07:44:41;;;;;;;56.78;36.95;;;;;;;19.65;83.85;101228.16;6119052;23;20014;-79
2021/07/13 07:47:06;;;;;;;56.42;36.08;;;;;;;19.65;83.38;101233.50;6113012;23;20083;-81
2021/07/13 07:49:32;;;;;;;55.83;36.45;;;;;;;19.66;83.30;101229.94;6114101;23;20062;-82
2021/07/13 07:51:57;;;;;;;60.90;38.92;;;;;;;19.62;83.29;101231.75;6116255;23;20020;-83
2021/07/13 07:54:23;;;;;;;67.15;41.35;;;;;;;19.59;83.42;101230.91;6114495;23;20457;-81
2021/07/13 07:57:16;;;;;;;58.67;39.75;;;;;;;19.63;83.66;101237.97;6116553;23;20034;-83
2021/07/13 08:00:12;;;;;;;65.40;40.53;;;;;;;19.63;83.70;101236.19;6112344;23;20018;-88
2021/07/13 08:02:46;;;;;;;62.90;39.33;;;;;;;19.54;83.75;101237.19;6116905;23;20025;-82
2021/07/13 08:05:14;;;;;;;63.83;41.05;;;;;;;19.50;83.67;101242.59;6117350;23;20555;-82
2021/07/13 08:07:40;;;;;;;71.78;43.35;;;;;;;19.47;84.36;101248.88;6118413;23;20025;-81
2021/07/13 08:10:28;;;;;;;67.80;42.05;;;;;;;19.46;83.75;101236.41;6117850;23;20484;-81
2021/07/13 08:13:03;;;;;;;68.30;42.95;;;;;;;19.49;83.40;101246.19;6118699;23;20405;-87
2021/07/13 08:15:29;;;;;;;63.08;39.55;;;;;;;19.55;83.65;101240.75;6117286;23;20394;-87
2021/07/13 08:18:01;;;;;;;63.83;41.40;;;;;;;19.50;84.07;101235.47;6115757;23;20037;-84
2021/07/13 08:20:27;;;;;;;63.65;40.88;;;;;;;19.51;83.41;101239.91;6114890;23;20439;-82
2021/07/13 08:22:52;;;;;;;57.65;38.63;;;;;;;19.44;83.19;101240.00;6116143;23;20010;-83
2021/07/13 08:25:21;;;;;;;56.15;38.40;;;;;;;19.43;83.39;101248.94;6117547;23;20274;-83
2021/07/13 08:27:47;;;;;;;64.38;41.05;;;;;;;19.42;83.07;101240.03;6119040;23;20021;-81
2021/07/13 08:30:16;;;;;;;60.55;40.53;;;;;;;19.42;84.23;101242.72;6120686;23;20006;-80
2021/07/13 08:32:42;;;;;;;60.28;39.25;;;;;;;19.50;83.70;101246.16;6122302;23;20295;-87
2021/07/13 08:35:11;;;;;;;58.15;38.15;;;;;;;19.64;83.42;101250.41;6120512;23;20002;-81
2021/07/13 08:37:36;;;;;;;55.25;36.65;;;;;;;19.69;82.91;101244.09;6120487;23;20048;-79
2021/07/13 08:40:09;;;;;;;55.13;36.28;;;;;;;19.77;82.61;101238.66;6121506;23;20561;-81
2021/07/13 08:43:14;;;;;;;50.88;33.80;;;;;;;19.71;81.99;101239.63;6092566;23;20020;-79
2021/07/13 08:45:40;;;;;;;52.90;34.45;;;;;;;19.62;82.00;101252.25;6118267;23;20010;-82
2021/07/13 08:48:06;;;;;;;51.47;33.70;;;;;;;19.67;82.43;101242.38;6125407;23;20303;-81
2021/07/13 08:50:31;;;;;;;58.58;36.33;;;;;;;19.62;82.70;101242.44;6126434;23;20059;-86
2021/07/13 08:53:17;;;;;;;52.28;34.42;;;;;;;19.55;83.01;101248.78;6127187;23;20106;-80
2021/07/13 08:55:42;;;;;;;52.10;35.35;;;;;;;19.50;82.75;101243.47;6127507;23;20084;-88
2021/07/13 08:58:28;;;;;;;54.08;33.60;;;;;;;19.55;82.96;101249.63;6125879;23;20111;-82
2021/07/13 09:01:04;;;;;;;54.70;35.80;;;;;;;19.59;82.92;101238.91;6125236;23;20010;-83
2021/07/13 09:03:32;;;;;;;51.95;34.03;;;;;;;19.70;82.61;101247.66;6125526;23;20013;-86
2021/07/13 09:06:28;;;;;;;49.45;32.60;;;;;;;19.81;82.17;101245.72;6125408;23;20024;-79
2021/07/13 09:08:54;;;;;;;48.47;34.03;;;;;;;19.86;81.85;101248.34;6100463;23;20020;-86
2021/07/13 09:11:39;;;;;;;53.15;34.30;;;;;;;19.80;81.10;101249.31;6127200;23;20096;-82
2021/07/13 09:14:05;;;;;;;49.30;34.90;;;;;;;19.75;81.43;101245.81;6125830;23;20006;-87
2021/07/13 09:16:34;;;;;;;55.95;33.80;;;;;;;19.84;81.42;101245.69;6125462;23;20056;-83
2021/07/13 09:19:19;;;;;;;52.55;34.47;;;;;;;19.95;81.52;101241.97;6126019;23;20425;-84
2021/07/13 09:21:45;;;;;;;53.75;35.47;;;;;;;20.09;81.01;101255.09;6104559;23;20181;-83
2021/07/13 09:24:16;;;;;;;50.63;35.38;;;;;;;20.12;81.01;101250.59;6101555;23;20009;-79
2021/07/13 09:26:48;;;;;;;52.22;34.03;;;;;;;20.29;81.34;101255.63;6127555;23;20029;-80
2021/07/13 09:29:37;;;;;;;45.80;30.75;;;;;;;20.45;80.02;101258.94;6126085;23;20064;-83
2021/07/13 09:32:23;;;;;;;50.78;34.35;;;;;;;20.33;79.70;101257.38;6126150;23;20014;-84
2021/07/13 09:35:03;;;;;;;48.85;34.20;;;;;;;20.35;79.62;101249.31;6125743;23;20001;-83
2021/07/13 09:37:51;;;;;;;46.55;32.47;;;;;;;20.34;79.30;101252.91;6124381;23;20422;-83
2021/07/13 09:40:40;;;;;;;50.90;34.25;;;;;;;20.31;78.99;101255.63;6101457;23;20037;-85
2021/07/13 09:43:12;;;;;;;53.00;36.28;;;;;;;20.40;79.16;101250.09;6128259;23;20033;-89
2021/07/13 09:45:58;;;;;;;50.15;35.00;;;;;;;20.63;78.96;101246.13;6127937;23;20085;-89
2021/07/13 09:48:24;;;;;;;48.75;32.92;;;;;;;20.75;78.57;101255.75;6127550;23;20017;-82
2021/07/13 09:50:50;;;;;;;49.25;32.63;;;;;;;20.72;77.83;101254.88;6127241;23;20068;-91
2021/07/13 09:53:22;;;;;;;48.58;31.83;;;;;;;20.70;77.75;101254.06;6127808;23;20421;-84
2021/07/13 09:56:11;;;;;;;52.35;34.33;;;;;;;20.75;77.42;101256.63;6127363;23;20485;-83
2021/07/13 09:58:39;;;;;;;47.20;32.13;;;;;;;20.88;77.60;101255.47;6124151;23;20006;-85
2021/07/13 10:01:30;;;;;;;47.25;32.45;;;;;;;21.06;78.26;101245.31;6124295;23;20014;-84
2021/07/13 10:03:56;;;;;;;45.03;30.02;;;;;;;21.02;75.70;101248.97;6125632;23;20006;-80
2021/07/13 10:06:30;;;;;;;44.47;31.17;;;;;;;21.00;75.42;101242.78;6126794;23;20056;-90
2021/07/13 10:08:59;;;;;;;41.63;30.65;;;;;;;21.07;75.51;101247.09;6129218;23;20014;-80
2021/07/13 10:11:44;;;;;;;45.70;32.22;;;;;;;20.89;76.21;101253.72;6129187;23;20018;-85
2021/07/13 10:14:10;;;;;;;43.15;31.52;;;;;;;20.76;76.80;101255.72;6125672;23;20013;-80
2021/07/13 10:17:16;;;;;;;47.28;31.95;;;;;;;20.84;76.59;101260.94;6123580;23;20414;-84
2021/07/13 10:20:12;;;;;;;49.50;30.42;;;;;;;20.70;77.23;101259.41;6123247;23;20022;-79
2021/07/13 10:23:17;;;;;;;53.22;31.23;;;;;;;20.70;76.88;101267.44;6125058;23;20013;-83
2021/07/13 10:26:16;;;;;;;;;;;;;;;;;;;;;
2021/07/13 10:29:22;;;;;;;50.67;31.77;;;;;;;20.72;78.11;101272.75;6118384;23;20532;-86
2021/07/13 10:31:47;;;;;;;47.80;30.00;;;;;;;20.84;77.01;101277.84;6122010;23;20021;-87
2021/07/13 10:34:48;;;;;;;40.38;29.02;;;;;;;20.64;76.01;101277.31;6121469;23;20026;-84
2021/07/13 10:37:45;;;;;;;45.72;28.33;;;;;;;20.73;76.61;101274.50;6121916;23;20501;-84
2021/07/13 10:40:39;;;;;;;44.78;27.42;;;;;;;20.70;76.57;101271.88;6110372;23;20018;-87
2021/07/13 10:43:24;;;;;;;40.88;26.42;;;;;;;20.76;75.99;101273.56;6120119;23;20085;-88
2021/07/13 10:46:48;;;;;;;40.85;25.83;;;;;;;20.87;75.55;101266.22;6122453;23;20033;-85
2021/07/13 10:49:20;;;;;;;45.13;26.45;;;;;;;20.91;75.89;101277.75;6102010;23;20022;-83
2021/07/13 10:52:31;;;;;;;41.83;26.90;;;;;;;20.82;77.10;101286.81;6098570;23;20017;-84
2021/07/13 10:54:56;;;;;;;41.33;26.15;;;;;;;20.60;75.96;101291.66;5986188;23;20008;-83
2021/07/13 10:57:25;;;;;;;41.13;26.38;;;;;;;20.65;75.84;101298.69;6097108;23;20405;-79
2021/07/13 11:00:20;;;;;;;40.38;26.73;;;;;;;20.62;76.76;101297.84;6093686;23;20177;-85
2021/07/13 11:03:04;;;;;;;43.80;27.20;;;;;;;20.64;75.31;101293.34;6121319;23;20009;-80
2021/07/13 11:05:50;;;;;;;41.90;27.30;;;;;;;20.66;75.71;101304.91;6124588;23;20010;-86
2021/07/13 11:08:38;;;;;;;45.25;28.92;;;;;;;20.72;76.33;101304.81;6122150;23;20355;-82
2021/07/13 11:11:05;;;;;;;40.80;27.35;;;;;;;20.60;75.70;101302.34;6121910;23;20014;-79
2021/07/13 11:13:33;;;;;;;39.22;27.65;;;;;;;20.63;76.08;101308.53;6124223;23;20010;-85
2021/07/13 11:16:44;;;;;;;41.95;28.30;;;;;;;20.66;75.37;101304.91;6099111;23;20333;-86
2021/07/13 11:19:17;;;;;;;40.72;26.20;;;;;;;20.74;75.15;101297.69;6124557;23;20010;-88
2021/07/13 11:22:03;;;;;;;42.30;28.35;;;;;;;20.83;75.68;101302.81;6126045;23;20006;-80
2021/07/13 11:24:58;;;;;;;;;;;;;;;;;;;;;
2021/07/13 11:27:31;;;;;;;40.15;26.80;;;;;;;21.08;74.41;101307.72;6126042;23;20061;-86
2021/07/13 11:30:24;;;;;;;39.20;26.15;;;;;;;20.89;74.41;101312.56;6127814;23;20080;-80
2021/07/13 11:33:11;;;;;;;38.45;24.98;;;;;;;20.67;75.58;101312.91;6126587;23;20037;-83
2021/07/13 11:35:59;;;;;;;34.65;23.95;;;;;;;20.55;75.67;101318.44;6123638;23;20044;-82
2021/07/13 11:38:50;;;;;;;39.25;24.92;;;;;;;20.44;76.78;101321.31;6118892;23;20014;-87
2021/07/13 11:41:59;;;;;;;32.70;24.13;;;;;;;20.36;77.05;101312.53;6127122;23;20020;-81
2021/07/13 11:45:07;;;;;;;35.22;25.65;;;;;;;20.12;76.77;101308.50;6126495;23;20021;-83
2021/07/13 11:47:33;;;;;;;36.15;25.95;;;;;;;20.07;77.68;101311.22;6127636;23;20410;-82
2021/07/13 11:49:58;;;;;;;38.50;26.77;;;;;;;19.96;77.77;101306.03;6126182;23;20010;-86
2021/07/13 11:52:33;;;;;;;36.97;26.80;;;;;;;20.12;77.44;101314.72;6125841;23;20002;-84
2021/07/13 11:55:08;;;;;;;;;;;;;;;;;;;;;
2021/07/13 11:57:56;;;;;;;39.50;28.83;;;;;;;20.12;76.30;101320.06;6120657;23;20089;-85
2021/07/13 12:00:46;;;;;;;39.60;28.42;;;;;;;20.26;77.10;101313.63;6124663;23;20021;-85
2021/07/13 12:03:31;;;;;;;38.35;27.38;;;;;;;20.31;77.16;101314.44;6125560;23;20125;-84
2021/07/13 12:06:33;;;;;;;35.83;23.30;;;;;;;20.42;76.63;101323.16;6118649;23;20037;-82
2021/07/13 12:09:41;;;;;;;40.33;24.33;;;;;;;20.69;75.23;101321.81;6123915;23;20013;-84
2021/07/13 12:12:11;;;;;;;31.73;21.40;;;;;;;21.19;72.89;101316.41;6121072;23;20018;-84
2021/07/13 12:14:59;;;;;;;30.52;20.50;;;;;;;21.46;72.57;101319.44;6125490;23;20025;-86
2021/07/13 12:18:45;;;;;;;;;;;;;;;;;;;;;
2021/07/13 12:21:33;;;;;;;;;;;;;;;;;;;;;
2021/07/13 12:25:00;;;;;;;29.08;19.50;;;;;;;21.41;71.35;101326.69;5894133;24;20405;-86
2021/07/13 12:27:35;;;;;;;30.10;22.52;;;;;;;21.40;70.80;101338.28;5905876;24;20017;-85